createdAt,value
2019-05-14T00:01:37.769Z,4.10
2019-05-14T00:04:04.866Z,4.10
2019-05-14T00:06:31.916Z,4.10
2019-05-14T00:08:58.752Z,3.90
2019-05-14T00:11:25.597Z,3.80
2019-05-14T00:13:52.432Z,3.80
2019-05-14T00:16:21.639Z,3.70
2019-05-14T00:18:47.977Z,3.70
2019-05-14T00:21:15.056Z,3.70
2019-05-14T00:23:42.179Z,3.70
2019-05-14T00:26:09.134Z,3.80
2019-05-14T00:28:35.952Z,3.90
2019-05-14T00:31:03.151Z,3.90
2019-05-14T00:33:31.550Z,3.90
2019-05-14T00:35:58.596Z,4.10
2019-05-14T00:38:25.390Z,4.20
2019-05-14T00:40:52.206Z,4.10
2019-05-14T00:43:19.018Z,4.10
2019-05-14T00:45:45.842Z,4.20
2019-05-14T00:48:13.032Z,4.20
2019-05-14T00:50:41.997Z,4.20
2019-05-14T00:53:11.804Z,4.10
2019-05-14T00:55:38.556Z,4.20
2019-05-14T00:58:05.374Z,4.10
2019-05-14T01:00:32.387Z,4.10
2019-05-14T01:03:01.784Z,4.10
2019-05-14T01:05:28.185Z,4.00
2019-05-14T01:07:54.980Z,3.80
2019-05-14T01:10:22.240Z,3.80
2019-05-14T01:12:51.882Z,3.80
2019-05-14T01:15:18.293Z,3.80
2019-05-14T01:17:55.673Z,3.80
2019-05-14T01:20:22.496Z,3.80
2019-05-14T01:22:51.648Z,3.80
2019-05-14T01:25:23.277Z,3.80
2019-05-14T01:27:48.890Z,3.80
2019-05-14T01:30:15.927Z,3.80
2019-05-14T01:32:42.735Z,3.80
2019-05-14T01:35:11.824Z,3.90
2019-05-14T01:37:38.409Z,3.80
2019-05-14T01:40:08.048Z,4.00
2019-05-14T01:42:34.947Z,4.10
2019-05-14T01:45:02.608Z,4.00
2019-05-14T01:47:31.755Z,4.00
2019-05-14T01:49:58.482Z,3.80
2019-05-14T01:52:25.577Z,3.70
2019-05-14T01:54:52.373Z,3.50
2019-05-14T01:57:21.909Z,3.30
2019-05-14T01:59:51.452Z,3.30
2019-05-14T02:02:17.818Z,3.10
2019-05-14T02:04:44.628Z,3.10
2019-05-14T02:07:11.811Z,3.10
2019-05-14T02:09:38.685Z,2.90
2019-05-14T02:12:05.596Z,2.90
2019-05-14T02:14:32.398Z,2.80
2019-05-14T02:17:01.679Z,2.50
2019-05-14T02:19:28.009Z,2.40
2019-05-14T02:21:54.945Z,2.20
2019-05-14T02:24:21.947Z,2.20
2019-05-14T02:26:51.251Z,2.30
2019-05-14T02:29:17.582Z,2.40
2019-05-14T02:31:44.414Z,2.30
2019-05-14T02:34:11.213Z,2.30
2019-05-14T02:36:39.964Z,2.30
2019-05-14T02:39:10.227Z,2.30
2019-05-14T02:41:38.940Z,2.30
2019-05-14T02:44:04.601Z,2.10
2019-05-14T02:46:31.812Z,1.90
2019-05-14T02:48:59.499Z,1.70
2019-05-14T02:51:29.724Z,1.70
2019-05-14T02:53:55.350Z,1.70
2019-05-14T02:56:22.166Z,1.80
2019-05-14T02:58:50.001Z,1.90
2019-05-14T03:01:19.927Z,2.10
2019-05-14T03:03:49.265Z,2.30
2019-05-14T03:06:15.007Z,2.30
2019-05-14T03:08:42.833Z,2.40
2019-05-14T03:11:09.984Z,2.50
2019-05-14T03:13:39.768Z,2.40
2019-05-14T03:16:22.167Z,2.40
2019-05-14T03:18:34.622Z,2.50
2019-05-14T03:21:01.548Z,2.60
2019-05-14T03:23:30.232Z,2.60
2019-05-14T03:26:00.442Z,2.70
2019-05-14T03:28:26.124Z,2.60
2019-05-14T03:30:53.555Z,2.60
2019-05-14T03:33:22.377Z,2.70
2019-05-14T03:35:58.016Z,2.60
2019-05-14T03:38:19.665Z,2.50
2019-05-14T03:40:49.497Z,2.60
2019-05-14T03:43:19.633Z,2.90
2019-05-14T03:45:45.807Z,3.00
2019-05-14T03:48:12.621Z,3.20
2019-05-14T03:50:39.657Z,3.50
2019-05-14T03:53:09.829Z,3.60
2019-05-14T03:55:35.634Z,3.60
2019-05-14T03:58:02.672Z,3.60
2019-05-14T04:00:49.589Z,3.70
2019-05-14T04:03:14.981Z,3.80
2019-05-14T04:05:42.286Z,3.90
2019-05-14T04:08:10.573Z,4.00
2019-05-14T04:10:41.896Z,4.10
2019-05-14T04:13:10.610Z,4.10
2019-05-14T04:15:39.323Z,4.20
2019-05-14T04:18:09.035Z,4.20
2019-05-14T04:20:39.248Z,4.30
2019-05-14T04:23:09.077Z,4.40
2019-05-14T04:25:38.968Z,4.60
2019-05-14T04:28:09.912Z,4.70
2019-05-14T04:30:39.884Z,4.70
2019-05-14T04:33:10.668Z,4.80
2019-05-14T04:35:40.109Z,4.90
2019-05-14T04:38:09.393Z,5.00
2019-05-14T04:40:35.323Z,5.20
2019-05-14T04:43:02.374Z,5.30
2019-05-14T04:45:29.882Z,5.50
2019-05-14T04:47:59.941Z,5.60
2019-05-14T04:50:26.083Z,5.70
2019-05-14T04:52:54.470Z,5.80
2019-05-14T04:55:21.401Z,6.00
2019-05-14T04:57:50.045Z,6.20
2019-05-14T05:00:19.897Z,6.40
2019-05-14T05:02:49.465Z,6.40
2019-05-14T05:05:15.040Z,6.60
2019-05-14T05:07:41.893Z,6.70
2019-05-14T05:10:10.311Z,6.80
2019-05-14T05:12:38.746Z,6.90
2019-05-14T05:15:05.909Z,7.10
2019-05-14T05:17:44.230Z,7.60
2019-05-14T05:20:02.088Z,7.90
2019-05-14T05:22:28.985Z,8.20
2019-05-14T05:24:55.958Z,8.60
2019-05-14T05:27:22.774Z,8.80
2019-05-14T05:29:49.631Z,9.00
2019-05-14T05:32:19.189Z,9.30
2019-05-14T05:34:45.194Z,9.50
2019-05-14T05:37:12.140Z,9.80
2019-05-14T05:39:38.956Z,9.90
2019-05-14T05:42:05.782Z,10.20
2019-05-14T05:44:32.632Z,10.20
2019-05-14T05:46:59.874Z,10.40
2019-05-14T05:49:29.018Z,10.50
2019-05-14T05:51:55.842Z,10.50
2019-05-14T05:54:22.674Z,10.80
2019-05-14T05:56:49.551Z,11.00
2019-05-14T05:59:18.781Z,11.20
2019-05-14T06:01:46.632Z,11.40
2019-05-14T06:04:14.648Z,11.50
2019-05-14T06:06:41.483Z,12.10
2019-05-14T06:09:08.864Z,12.20
2019-05-14T06:11:37.960Z,12.30
2019-05-14T06:14:04.912Z,11.80
2019-05-14T06:16:31.738Z,12.20
2019-05-14T06:18:58.889Z,12.40
2019-05-14T06:21:26.041Z,12.90
2019-05-14T06:23:52.831Z,12.80
2019-05-14T06:26:19.795Z,12.20
2019-05-14T06:28:48.888Z,11.80
2019-05-14T06:31:15.456Z,12.10
2019-05-14T06:33:42.382Z,12.40
2019-05-14T06:36:09.193Z,12.40
2019-05-14T06:38:38.581Z,12.40
2019-05-14T06:41:08.191Z,12.70
2019-05-14T06:43:34.252Z,13.40
2019-05-14T06:46:01.521Z,13.90
2019-05-14T06:48:34.267Z,13.90
2019-05-14T06:50:58.212Z,13.60
2019-05-14T06:53:25.607Z,13.60
2019-05-14T06:55:52.599Z,13.60
2019-05-14T06:58:20.495Z,13.60
2019-05-14T07:00:49.517Z,13.50
2019-05-14T07:03:17.990Z,13.20
2019-05-14T07:05:44.976Z,12.10
2019-05-14T07:08:11.778Z,11.90
2019-05-14T07:10:39.536Z,11.40
2019-05-14T07:13:08.607Z,11.70
2019-05-14T07:15:35.328Z,11.60
2019-05-14T07:18:02.331Z,11.30
2019-05-14T07:20:29.161Z,11.60
2019-05-14T07:22:58.511Z,12.00
2019-05-14T07:25:24.938Z,12.10
2019-05-14T07:27:51.961Z,12.70
2019-05-14T07:30:19.427Z,12.70
2019-05-14T07:32:48.395Z,12.30
2019-05-14T07:35:18.145Z,12.10
2019-05-14T07:37:44.923Z,13.90
2019-05-14T07:40:12.182Z,13.80
2019-05-14T07:42:39.005Z,12.60
2019-05-14T07:45:09.363Z,12.20
2019-05-14T07:47:35.587Z,12.20
2019-05-14T07:50:02.955Z,12.40
2019-05-14T07:52:29.792Z,12.30
2019-05-14T07:54:58.637Z,12.00
2019-05-14T07:57:28.513Z,11.70
2019-05-14T07:59:55.779Z,11.80
2019-05-14T08:02:22.667Z,11.80
2019-05-14T08:04:49.759Z,12.50
2019-05-14T08:07:17.992Z,12.80
2019-05-14T08:09:44.921Z,12.80
2019-05-14T08:12:12.884Z,12.40
2019-05-14T08:14:57.124Z,12.60
2019-05-14T08:17:10.889Z,13.10
2019-05-14T08:19:38.645Z,12.80
2019-05-14T08:22:05.755Z,12.80
2019-05-14T08:24:32.572Z,12.90
2019-05-14T08:26:59.386Z,13.00
2019-05-14T08:29:28.533Z,13.30
2019-05-14T08:31:55.149Z,13.10
2019-05-14T08:34:21.961Z,13.80
2019-05-14T08:36:48.845Z,14.60
2019-05-14T08:39:18.357Z,15.60
2019-05-14T08:41:44.617Z,16.00
2019-05-14T08:44:11.557Z,15.40
2019-05-14T08:46:38.828Z,14.40
2019-05-14T08:49:08.788Z,14.00
2019-05-14T08:51:35.122Z,13.60
2019-05-14T08:54:02.219Z,13.30
2019-05-14T08:56:29.217Z,13.30
2019-05-14T08:58:56.093Z,13.30
2019-05-14T09:01:23.251Z,13.10
2019-05-14T09:03:50.099Z,13.10
2019-05-14T09:06:18.543Z,13.10
2019-05-14T09:08:46.024Z,13.10
2019-05-14T09:11:12.834Z,13.70
2019-05-14T09:13:39.666Z,14.30
2019-05-14T09:16:09.033Z,13.80
2019-05-14T09:18:35.292Z,13.90
2019-05-14T09:21:02.207Z,14.40
2019-05-14T09:23:29.037Z,15.00
2019-05-14T09:25:58.552Z,15.00
2019-05-14T09:28:24.971Z,14.70
2019-05-14T09:30:51.890Z,14.00
2019-05-14T09:33:19.405Z,14.10
2019-05-14T09:35:49.277Z,16.00
2019-05-14T09:38:18.650Z,17.20
2019-05-14T09:40:44.934Z,15.80
2019-05-14T09:43:11.786Z,15.20
2019-05-14T09:45:38.956Z,15.20
2019-05-14T09:48:05.963Z,15.70
2019-05-14T09:50:32.866Z,15.70
2019-05-14T09:52:59.706Z,15.30
2019-05-14T09:55:28.193Z,14.50
2019-05-14T09:57:55.412Z,13.80
2019-05-14T10:00:22.395Z,13.60
2019-05-14T10:02:49.559Z,13.60
2019-05-14T10:05:16.426Z,13.60
2019-05-14T10:07:43.218Z,16.80
2019-05-14T10:10:10.405Z,20.40
2019-05-14T10:12:48.375Z,19.70
2019-05-14T10:15:08.810Z,19.10
2019-05-14T10:17:38.967Z,19.70
2019-05-14T10:20:08.586Z,18.50
2019-05-14T10:22:34.675Z,16.60
2019-05-14T10:25:01.592Z,16.40
2019-05-14T10:27:28.505Z,17.70
2019-05-14T10:29:55.482Z,19.00
2019-05-14T10:32:22.356Z,21.00
2019-05-14T10:34:49.237Z,21.40
2019-05-14T10:37:18.968Z,17.60
2019-05-14T10:39:45.929Z,16.70
2019-05-14T10:42:12.752Z,15.60
2019-05-14T10:44:41.859Z,14.70
2019-05-14T10:47:09.439Z,14.40
2019-05-14T10:49:38.557Z,14.60
2019-05-14T10:52:05.542Z,14.80
2019-05-14T10:54:32.346Z,15.20
2019-05-14T10:56:59.650Z,16.50
2019-05-14T10:59:29.153Z,19.20
2019-05-14T11:01:55.342Z,20.00
2019-05-14T11:04:22.397Z,19.40
2019-05-14T11:06:49.266Z,16.70
2019-05-14T11:09:18.119Z,15.70
2019-05-14T11:11:44.918Z,15.40
2019-05-14T11:14:11.785Z,14.80
2019-05-14T11:16:41.917Z,14.60
2019-05-14T11:19:09.378Z,14.50
2019-05-14T11:21:36.425Z,14.40
2019-05-14T11:24:03.358Z,15.40
2019-05-14T11:26:31.252Z,17.50
2019-05-14T11:28:58.605Z,17.60
2019-05-14T11:31:25.806Z,16.90
2019-05-14T11:33:52.627Z,17.80
2019-05-14T11:36:20.538Z,20.70
2019-05-14T11:38:50.454Z,19.40
2019-05-14T11:41:18.665Z,22.40
2019-05-14T11:43:45.287Z,22.00
2019-05-14T11:46:12.144Z,22.30
2019-05-14T11:48:39.457Z,22.40
2019-05-14T11:51:08.974Z,22.70
2019-05-14T11:53:38.330Z,20.70
2019-05-14T11:56:04.347Z,19.00
2019-05-14T11:58:31.248Z,16.90
2019-05-14T12:00:58.526Z,16.80
2019-05-14T12:03:25.412Z,18.60
2019-05-14T12:05:52.234Z,17.90
2019-05-14T12:08:19.057Z,20.00
2019-05-14T12:10:47.271Z,20.90
2019-05-14T12:13:14.211Z,18.50
2019-05-14T12:15:41.013Z,18.70
2019-05-14T12:18:10.413Z,16.30
2019-05-14T12:20:39.552Z,14.80
2019-05-14T12:23:05.474Z,14.70
2019-05-14T12:25:32.315Z,14.60
2019-05-14T12:27:59.193Z,14.80
2019-05-14T12:30:28.466Z,14.80
2019-05-14T12:32:54.927Z,15.00
2019-05-14T12:35:21.747Z,15.00
2019-05-14T12:37:48.565Z,15.20
2019-05-14T12:40:15.711Z,16.30
2019-05-14T12:42:42.629Z,18.40
2019-05-14T12:45:09.781Z,17.60
2019-05-14T12:47:38.371Z,16.40
2019-05-14T12:50:05.753Z,15.50
2019-05-14T12:52:32.581Z,15.00
2019-05-14T12:54:59.840Z,14.90
2019-05-14T12:57:29.839Z,14.60
2019-05-14T12:59:58.098Z,15.20
2019-05-14T13:02:24.483Z,15.70
2019-05-14T13:04:51.524Z,18.70
2019-05-14T13:07:19.221Z,18.50
2019-05-14T13:09:46.269Z,20.10
2019-05-14T13:12:13.323Z,18.00
2019-05-14T13:14:40.143Z,16.80
2019-05-14T13:17:09.074Z,15.60
2019-05-14T13:19:37.844Z,14.90
2019-05-14T13:22:13.082Z,14.60
2019-05-14T13:24:34.015Z,14.20
2019-05-14T13:27:02.035Z,14.10
2019-05-14T13:29:29.122Z,14.10
2019-05-14T13:31:59.017Z,14.20
2019-05-14T13:34:25.614Z,14.60
2019-05-14T13:36:52.567Z,15.10
2019-05-14T13:39:19.609Z,16.70
2019-05-14T13:41:48.621Z,17.30
2019-05-14T13:44:24.484Z,16.90
2019-05-14T13:46:48.694Z,18.90
2019-05-14T13:49:15.170Z,18.70
2019-05-14T13:51:42.288Z,19.20
2019-05-14T13:54:09.094Z,19.50
2019-05-14T13:56:35.925Z,18.50
2019-05-14T13:59:03.938Z,17.60
2019-05-14T14:01:30.783Z,16.90
2019-05-14T14:04:06.759Z,19.50
2019-05-14T14:06:26.631Z,21.10
2019-05-14T14:08:54.672Z,18.30
2019-05-14T14:11:21.545Z,16.10
2019-05-14T14:13:48.961Z,15.10
2019-05-14T14:16:16.215Z,14.60
2019-05-14T14:18:44.989Z,14.80
2019-05-14T14:21:12.138Z,15.50
2019-05-14T14:23:39.498Z,14.90
2019-05-14T14:26:09.164Z,14.50
2019-05-14T14:28:35.187Z,14.20
2019-05-14T14:31:02.085Z,14.10
2019-05-14T14:33:29.098Z,16.40
2019-05-14T14:35:58.414Z,18.80
2019-05-14T14:38:24.879Z,19.50
2019-05-14T14:40:52.037Z,18.20
2019-05-14T14:43:19.107Z,17.20
2019-05-14T14:45:47.611Z,15.60
2019-05-14T14:48:14.893Z,16.90
2019-05-14T14:50:41.812Z,18.10
2019-05-14T14:53:09.363Z,18.10
2019-05-14T14:55:39.729Z,18.00
2019-05-14T14:58:05.746Z,17.10
2019-05-14T15:00:32.741Z,15.40
2019-05-14T15:02:59.955Z,14.50
2019-05-14T15:05:29.571Z,15.80
2019-05-14T15:07:55.957Z,16.60
2019-05-14T15:10:22.746Z,17.40
2019-05-14T15:12:50.011Z,18.60
2019-05-14T15:15:18.643Z,18.30
2019-05-14T15:17:48.182Z,18.00
2019-05-14T15:20:14.672Z,17.70
2019-05-14T15:22:41.598Z,18.00
2019-05-14T15:25:09.750Z,17.10
2019-05-14T15:27:38.527Z,17.20
2019-05-14T15:30:05.927Z,16.20
2019-05-14T15:32:32.872Z,15.50
2019-05-14T15:34:59.690Z,14.70
2019-05-14T15:37:28.497Z,14.30
2019-05-14T15:39:55.454Z,14.00
2019-05-14T15:42:22.285Z,14.00
2019-05-14T15:44:55.588Z,14.20
2019-05-14T15:47:18.985Z,14.30
2019-05-14T15:49:48.665Z,14.10
2019-05-14T15:52:14.946Z,14.20
2019-05-14T15:54:46.680Z,14.00
2019-05-14T15:57:10.660Z,14.00
2019-05-14T15:59:39.175Z,14.10
2019-05-14T16:02:09.104Z,14.20
2019-05-14T16:04:34.854Z,13.90
2019-05-14T16:07:01.670Z,13.70
2019-05-14T16:09:29.111Z,13.60
2019-05-14T16:11:56.108Z,13.20
2019-05-14T16:14:22.917Z,13.10
2019-05-14T16:16:49.984Z,13.10
2019-05-14T16:19:19.027Z,12.80
2019-05-14T16:21:45.734Z,12.60
2019-05-14T16:24:13.015Z,12.30
2019-05-14T16:26:39.810Z,12.30
2019-05-14T16:29:08.913Z,12.30
2019-05-14T16:31:41.987Z,12.50
2019-05-14T16:34:04.398Z,12.70
2019-05-14T16:36:31.185Z,12.70
2019-05-14T16:38:58.561Z,12.70
2019-05-14T16:41:25.591Z,12.70
2019-05-14T16:43:52.444Z,12.40
2019-05-14T16:46:19.252Z,12.20
2019-05-14T16:48:48.652Z,12.10
2019-05-14T16:51:14.966Z,12.00
2019-05-14T16:53:41.817Z,11.90
2019-05-14T16:56:08.673Z,12.00
2019-05-14T16:58:35.599Z,12.10
2019-05-14T17:01:02.550Z,12.10
2019-05-14T17:03:29.998Z,12.20
2019-05-14T17:05:58.036Z,12.20
2019-05-14T17:08:25.165Z,12.20
2019-05-14T17:10:51.989Z,12.10
2019-05-14T17:13:18.801Z,12.00
2019-05-14T17:15:47.984Z,12.00
2019-05-14T17:18:14.669Z,11.90
2019-05-14T17:20:41.486Z,11.80
2019-05-14T17:23:09.063Z,11.80
2019-05-14T17:25:36.212Z,11.70
2019-05-14T17:28:03.193Z,11.70
2019-05-14T17:30:31.290Z,11.70
2019-05-14T17:32:58.923Z,11.70
2019-05-14T17:35:29.572Z,11.60
2019-05-14T17:37:55.331Z,11.60
2019-05-14T17:40:22.159Z,11.50
2019-05-14T17:42:49.039Z,11.30
2019-05-14T17:45:16.070Z,11.20
2019-05-14T17:47:43.214Z,11.10
2019-05-14T17:50:10.565Z,11.00
2019-05-14T17:52:43.211Z,10.90
2019-05-14T17:55:11.516Z,10.90
2019-05-14T17:57:36.228Z,11.00
2019-05-14T18:00:05.198Z,11.10
2019-05-14T18:02:33.418Z,11.20
2019-05-14T18:05:00.256Z,11.10
2019-05-14T18:07:28.588Z,10.80
2019-05-14T18:09:56.026Z,10.60
2019-05-14T18:12:22.821Z,10.70
2019-05-14T18:14:49.687Z,10.50
2019-05-14T18:17:18.622Z,10.20
2019-05-14T18:19:45.428Z,9.90
2019-05-14T18:22:12.363Z,9.60
2019-05-14T18:24:39.471Z,9.50
2019-05-14T18:27:08.360Z,9.30
2019-05-14T18:29:35.093Z,9.20
2019-05-14T18:32:02.089Z,9.10
2019-05-14T18:34:29.083Z,9.00
2019-05-14T18:36:55.905Z,8.90
2019-05-14T18:39:22.715Z,8.80
2019-05-14T18:41:50.013Z,8.70
2019-05-14T18:44:18.944Z,8.60
2019-05-14T18:46:48.432Z,8.40
2019-05-14T18:49:14.697Z,8.30
2019-05-14T18:51:41.501Z,8.30
2019-05-14T18:54:08.445Z,8.20
2019-05-14T18:56:35.253Z,8.20
2019-05-14T18:59:02.217Z,8.20
2019-05-14T19:01:30.295Z,8.10
2019-05-14T19:03:58.907Z,8.10
2019-05-14T19:06:28.162Z,8.00
2019-05-14T19:08:54.572Z,8.10
2019-05-14T19:11:21.385Z,7.90
2019-05-14T19:13:48.571Z,7.80
2019-05-14T19:16:15.596Z,7.70
2019-05-14T19:18:42.412Z,7.60
2019-05-14T19:21:09.461Z,7.40
2019-05-14T19:23:38.493Z,7.40
2019-05-14T19:26:05.736Z,7.30
2019-05-14T19:28:32.839Z,7.10
2019-05-14T19:30:59.799Z,7.10
2019-05-14T19:33:28.809Z,7.00
2019-05-14T19:35:55.430Z,7.10
2019-05-14T19:38:22.289Z,7.00
2019-05-14T19:40:49.225Z,7.10
2019-05-14T19:43:16.139Z,7.00
2019-05-14T19:45:43.017Z,7.10
2019-05-14T19:48:09.939Z,7.10
2019-05-14T19:50:38.745Z,6.90
2019-05-14T19:53:08.905Z,6.80
2019-05-14T19:55:34.693Z,6.60
2019-05-14T19:58:01.644Z,6.40
2019-05-14T20:00:29.061Z,6.30
2019-05-14T20:02:58.059Z,6.20
2019-05-14T20:05:24.840Z,6.20
2019-05-14T20:07:51.653Z,6.10
2019-05-14T20:10:18.581Z,6.00
2019-05-14T20:12:45.392Z,5.90
2019-05-14T20:15:12.441Z,5.90
2019-05-14T20:17:39.272Z,5.90
2019-05-14T20:20:08.833Z,5.80
2019-05-14T20:22:35.575Z,5.50
2019-05-14T20:25:02.654Z,5.50
2019-05-14T20:27:30.685Z,5.40
2019-05-14T20:29:58.115Z,5.20
2019-05-14T20:32:25.045Z,5.20
2019-05-14T20:34:51.890Z,5.30
2019-05-14T20:37:19.022Z,5.40
2019-05-14T20:39:48.358Z,5.30
2019-05-14T20:42:15.036Z,5.30
2019-05-14T20:44:41.934Z,5.30
2019-05-14T20:47:09.277Z,5.00
2019-05-14T20:49:38.003Z,5.00
2019-05-14T20:52:04.985Z,5.00
2019-05-14T20:54:31.815Z,5.00
2019-05-14T20:56:58.736Z,5.10
2019-05-14T20:59:28.115Z,5.10
2019-05-14T21:01:54.661Z,4.90
2019-05-14T21:04:21.702Z,4.90
2019-05-14T21:06:48.760Z,4.90
2019-05-14T21:09:15.656Z,4.80
2019-05-14T21:11:42.568Z,4.80
2019-05-14T21:14:09.452Z,4.80
2019-05-14T21:16:36.263Z,4.50
2019-05-14T21:19:03.776Z,4.40
2019-05-14T21:21:30.598Z,4.20
2019-05-14T21:23:58.692Z,4.20
2019-05-14T21:26:29.042Z,4.30
2019-05-14T21:28:55.472Z,4.20
2019-05-14T21:31:22.292Z,4.10
2019-05-14T21:33:49.160Z,3.90
2019-05-14T21:36:16.135Z,3.70
2019-05-14T21:38:42.965Z,3.80
2019-05-14T21:41:10.025Z,3.70
2019-05-14T21:43:49.810Z,3.50
2019-05-14T21:46:19.195Z,3.50
2019-05-14T21:48:47.724Z,3.50
2019-05-14T21:51:15.082Z,3.70
2019-05-14T21:53:41.898Z,3.80
2019-05-14T21:56:08.734Z,4.00
2019-05-14T21:58:35.569Z,4.00
2019-05-14T22:01:02.997Z,4.10
2019-05-14T22:03:30.321Z,4.10
2019-05-14T22:05:59.343Z,4.00
2019-05-14T22:08:27.891Z,4.00
2019-05-14T22:10:54.911Z,3.80
2019-05-14T22:13:21.758Z,3.60
2019-05-14T22:15:49.402Z,3.40
2019-05-14T22:18:20.094Z,3.20
2019-05-14T22:20:45.142Z,3.10
2019-05-14T22:23:12.156Z,3.10
2019-05-14T22:25:39.696Z,3.10
2019-05-14T22:28:12.414Z,3.00
2019-05-14T22:30:35.595Z,3.10
2019-05-14T22:33:02.425Z,3.00
2019-05-14T22:35:31.236Z,2.90
2019-05-14T22:37:59.703Z,3.00
2019-05-14T22:40:28.991Z,3.00
2019-05-14T22:42:55.374Z,3.00
2019-05-14T22:45:22.407Z,2.80
2019-05-14T22:47:50.492Z,2.80
2019-05-14T22:50:18.380Z,2.90
2019-05-14T22:52:45.311Z,2.80
2019-05-14T22:55:12.445Z,2.80
2019-05-14T22:57:39.612Z,2.70
2019-05-14T23:00:07.360Z,2.70
2019-05-14T23:02:38.241Z,2.70
2019-05-14T23:05:04.916Z,2.60
2019-05-14T23:07:31.741Z,2.50
2019-05-14T23:09:59.036Z,2.50
2019-05-14T23:12:28.566Z,2.40
2019-05-14T23:14:54.825Z,2.30
2019-05-14T23:17:22.664Z,2.30
2019-05-14T23:19:49.733Z,2.40
2019-05-14T23:22:18.540Z,2.30
2019-05-14T23:24:45.601Z,2.20
2019-05-14T23:27:12.395Z,2.20
2019-05-14T23:29:39.461Z,2.10
2019-05-14T23:32:08.138Z,2.10
2019-05-14T23:34:35.020Z,2.10
2019-05-14T23:37:02.185Z,2.00
2019-05-14T23:39:28.990Z,1.80
2019-05-14T23:41:58.191Z,1.80
2019-05-14T23:44:24.872Z,1.70
2019-05-14T23:46:51.758Z,1.80
2019-05-14T23:49:18.566Z,1.80
2019-05-14T23:51:45.454Z,1.80
2019-05-14T23:54:12.264Z,1.90
2019-05-14T23:56:39.106Z,1.90
2019-05-14T23:59:05.926Z,1.80
